Terminal Aerodrome Forecast
Issued by NWS

Home | Current Version | Previous Version | Text Only | Print | Product List | Glossary On
Versions: 1 2 3 4 5 6 7 8 9 10 11 12 13 14 15 16 17 18 19 20 21 22 23 24 25 26 27 28 29 30 31 32 33 34 35 36 37 38 39 40 41 42
000
FTUS43 KDTX 201128
TAFPTK
TAF
KPTK 201128Z 2012/2112 08007KT 1SM BR OVC004
     FM201300 08007KT 2SM -RA BR OVC004
     FM201500 08007KT 3SM -RA BR OVC004
     FM202000 VRB03KT 4SM BR OVC007
     FM210400 19004KT 1SM BR OVC004
     FM210900 12004KT 1/4SM FG VV002=

USA.gov is the U.S. government's official web portal to all federal, state and local government web resources and services.